Search for airport 
image banner adimage banner adimage banner ad
image banner ad

93CN - Ucsd Jacobs Medical Center Rooftop Heliport

Located in La Jolla, United States

ICAO - 93CN, IATA -

Data provided by Airmate  

General information

Coordinates: N32°52'40" W117°13'36"
Elevation is 538 feet MSL.
 
View others Airports in California

Operational data

Special qualification required
Current time UTC:
Current local time:
Weather at : KNKX - Miramar Mcas ( 8 km )
METAR: KNKX 211155Z 00000KT 10SM OVC009 17/14 A2994 RMK AO2 SLP134 T01670139 10167 20139 53005 $
TAF: TAF KNKX 2109/2209 VRB05KT 9999 OVC010 520009 520903 QNH2991INS TEMPO 2110/2114 4800 BR VV003 FM211730 29010KT 9999 SKC 520009 520903 QNH2991INS BECMG 2202/2204 30005KT 9999 OVC012 QNH2992INS TEMPO 2204/2209 3200 BR VV002 T14/2114Z T27/2121Z
View NOTAMs / SUP AIP / TFR affecting this airport [VIEW]
Communications frequencies: [VIEW]

Runways:

Airport contact information

Address: La Jolla United States

Satellite view of 93CN